»·PEaware :: UAL576 KLAX-KRNO

UAL576 :: KLAX-KRNO

FLIGHT INFORMATION

Flight Status: Arrived
Operator:
United Airlines
More flights by this operator :: More flights under this callsign
Pilot: Anonymous 8274 (8274)
Aircraft: BOEING 737-200
(B732)
More flights by this aircraft type
Origin: KLAX Los Angeles Intl
United States
Destination: KRNO Reno/Tahoe Intl
United States
More flights between these airports :: More routes between these airports
Route: VTU8 RZS J126 SAC SIER3
File this flight plan on PilotEdge
Remarks:
Altitude:
(Current/Filed)
32,000ft
Speed:
(Current/Filed)
460kts
Departed: 26-Jun-19 06:18 PM
Arrived: 26-Jun-19 07:35 PM
Distance/Time
Traveled:
340nm/1:16
Distance/Time
To Go:
Arrived

Flight Plot

Page will automatically refresh every two minutes.


Map Options




Map Legend


Flown Route
Filed Route
Departure Airport
Arrival Airport
Navaid (VOR, NDB)
Fix

Horizontal Profiles

Position Reports

Time Latitude Longitude Heading Altitude Ground
Speed
26-Jun-19 17:52 33.942270 -118.399134 263 111ft 0kts
26-Jun-19 17:53 33.942270 -118.399134 263 111ft 0kts
26-Jun-19 17:54 33.942270 -118.399134 263 111ft 0kts
26-Jun-19 17:55 33.942270 -118.399134 263 111ft 0kts
26-Jun-19 17:56 33.942270 -118.399134 263 111ft 0kts
26-Jun-19 17:57 33.942270 -118.399134 263 111ft 0kts
26-Jun-19 17:58 33.942270 -118.399134 263 111ft 0kts
26-Jun-19 17:59 33.942270 -118.399134 263 111ft 0kts
26-Jun-19 18:00 33.942270 -118.399134 263 111ft 0kts
26-Jun-19 18:01 33.942270 -118.399135 263 111ft 0kts
26-Jun-19 18:02 33.942306 -118.398737 263 112ft 0kts
26-Jun-19 18:03 33.942581 -118.398488 171 112ft 0kts
26-Jun-19 18:04 33.942580 -118.398488 171 111ft 0kts
26-Jun-19 18:05 33.942580 -118.398488 171 111ft 0kts
26-Jun-19 18:06 33.942580 -118.398488 171 111ft 0kts
26-Jun-19 18:07 33.940788 -118.398221 176 111ft 9kts
26-Jun-19 18:08 33.940404 -118.398252 174 111ft 0kts
26-Jun-19 18:09 33.940404 -118.398252 174 111ft 0kts
26-Jun-19 18:10 33.939985 -118.396228 83 111ft 2kts
26-Jun-19 18:11 33.939810 -118.395299 155 111ft 8kts
26-Jun-19 18:12 33.939648 -118.391469 83 111ft 22kts
26-Jun-19 18:13 33.940433 -118.383732 83 111ft 22kts
26-Jun-19 18:14 33.940754 -118.380213 115 112ft 0kts
26-Jun-19 18:15 33.940754 -118.380213 115 112ft 0kts
26-Jun-19 18:16 33.940720 -118.380146 125 112ft 3kts
26-Jun-19 18:17 33.939434 -118.384178 263 112ft 76kts
26-Jun-19 18:18 33.935060 -118.431279 265 1701ft 156kts
26-Jun-19 18:19 33.930033 -118.491362 264 3414ft 214kts
26-Jun-19 18:20 33.921841 -118.573878 263 5668ft 280kts
26-Jun-19 18:21 33.912329 -118.665426 262 9178ft 282kts
26-Jun-19 18:22 33.909150 -118.763220 293 11398ft 319kts
26-Jun-19 18:23 33.962792 -118.853736 310 13901ft 338kts
26-Jun-19 18:24 34.025378 -118.942327 310 16294ft 351kts
26-Jun-19 18:25 34.089931 -119.033662 310 18412ft 362kts
26-Jun-19 18:26 34.141454 -119.138128 284 20268ft 373kts
26-Jun-19 18:27 34.169812 -119.260766 287 21943ft 382kts
26-Jun-19 18:28 34.214274 -119.377651 321 23396ft 391kts
26-Jun-19 18:29 34.317389 -119.418127 327 24568ft 402kts
26-Jun-19 18:30 34.384861 -119.525748 301 25768ft 409kts
26-Jun-19 18:31 34.439649 -119.647624 300 26877ft 416kts
26-Jun-19 18:32 34.505395 -119.763761 306 28073ft 417kts
26-Jun-19 18:33 34.590348 -119.857744 330 29100ft 418kts
26-Jun-19 18:34 34.692760 -119.923462 331 30192ft 417kts
26-Jun-19 18:35 34.789438 -120.000981 324 31099ft 417kts
26-Jun-19 18:36 34.884057 -120.083604 324 31764ft 422kts
26-Jun-19 18:37 34.982781 -120.164520 326 32002ft 434kts
26-Jun-19 18:38 35.083304 -120.245985 326 32000ft 434kts
26-Jun-19 18:39 35.184122 -120.327692 326 32000ft 435kts
26-Jun-19 18:40 35.285012 -120.409460 326 31999ft 434kts
26-Jun-19 18:41 35.385292 -120.490737 326 31999ft 433kts
26-Jun-19 18:42 35.485502 -120.571959 326 31999ft 431kts
26-Jun-19 18:43 35.582703 -120.651444 321 31993ft 430kts
26-Jun-19 18:44 35.672972 -120.748386 318 31999ft 429kts
26-Jun-19 18:45 35.762224 -120.845119 318 31999ft 429kts
26-Jun-19 18:46 35.855375 -120.937012 325 32000ft 428kts
26-Jun-19 18:47 35.955644 -121.016989 329 32000ft 427kts
26-Jun-19 18:48 36.058378 -121.091052 329 31999ft 427kts
26-Jun-19 18:49 36.160776 -121.164873 329 31999ft 427kts
26-Jun-19 18:50 36.259398 -121.245384 324 32000ft 426kts
26-Jun-19 18:51 36.356267 -121.330036 325 31999ft 426kts
26-Jun-19 18:52 36.451492 -121.418113 323 32000ft 427kts
26-Jun-19 18:53 36.547546 -121.504555 325 32000ft 429kts
26-Jun-19 18:54 36.645139 -121.589854 325 32000ft 430kts
26-Jun-19 18:55 36.753936 -121.636173 6 32022ft 428kts
26-Jun-19 18:56 36.871087 -121.611683 11 32000ft 429kts
26-Jun-19 18:57 36.989474 -121.594830 0 32001ft 430kts
26-Jun-19 18:58 37.109001 -121.594737 0 32000ft 431kts
26-Jun-19 18:59 37.229053 -121.594585 0 32000ft 432kts
26-Jun-19 19:00 37.349203 -121.593257 3 32000ft 433kts
26-Jun-19 19:01 37.469320 -121.585087 3 32000ft 434kts
26-Jun-19 19:02 37.588645 -121.576860 3 32000ft 435kts
26-Jun-19 19:03 37.710635 -121.574859 0 32000ft 436kts
26-Jun-19 19:04 37.831949 -121.570961 3 32000ft 437kts
26-Jun-19 19:05 37.953235 -121.562365 3 31999ft 437kts
26-Jun-19 19:06 38.073861 -121.555470 359 32001ft 436kts
26-Jun-19 19:07 38.187246 -121.557324 359 31100ft 416kts
26-Jun-19 19:08 38.303758 -121.558687 2 26600ft 413kts
26-Jun-19 19:09 38.416658 -121.547785 3 24563ft 401kts
26-Jun-19 19:10 38.510506 -121.489673 54 22674ft 389kts
26-Jun-19 19:11 38.575795 -121.382086 40 20883ft 379kts
26-Jun-19 19:12 38.651801 -121.291064 44 19245ft 372kts
26-Jun-19 19:13 38.724192 -121.199079 44 18264ft 364kts
26-Jun-19 19:14 38.795600 -121.108251 44 17248ft 359kts
26-Jun-19 19:15 38.865791 -121.018641 46 16274ft 354kts
26-Jun-19 19:16 38.931680 -120.928714 46 15999ft 341kts
26-Jun-19 19:17 38.996494 -120.840052 46 16003ft 345kts
26-Jun-19 19:18 39.063267 -120.748752 45 16001ft 354kts
26-Jun-19 19:19 39.129304 -120.666908 43 16000ft 351kts
26-Jun-19 19:20 39.200171 -120.579359 43 16000ft 355kts
26-Jun-19 19:21 39.271733 -120.490860 43 16000ft 357kts
26-Jun-19 19:22 39.343755 -120.401697 43 16000ft 360kts
26-Jun-19 19:23 39.406216 -120.321163 45 16000ft 361kts
26-Jun-19 19:24 39.475688 -120.228758 45 15692ft 348kts
26-Jun-19 19:25 39.542519 -120.139783 45 14039ft 342kts
26-Jun-19 19:26 39.608216 -120.052233 45 12485ft 334kts
26-Jun-19 19:28 39.671531 -119.967783 45 10632ft 313kts
26-Jun-19 19:29 39.721988 -119.886955 82 9005ft 275kts
26-Jun-19 19:30 39.688673 -119.810653 131 8734ft 238kts
26-Jun-19 19:31 39.641341 -119.765170 187 7951ft 194kts
26-Jun-19 19:32 39.589252 -119.769234 180 6621ft 177kts
26-Jun-19 19:33 39.546298 -119.769162 179 5284ft 145kts
26-Jun-19 19:34 39.506577 -119.769235 180 4425ft 140kts
26-Jun-19 19:35 39.492514 -119.771013 271 4417ft 11kts
26-Jun-19 19:36 39.495227 -119.771531 358 4417ft 9kts
26-Jun-19 19:37 39.499714 -119.771506 1 4417ft 18kts
26-Jun-19 19:38 39.504539 -119.771502 359 4417ft 16kts
26-Jun-19 19:39 39.506159 -119.773251 352 4417ft 6kts
26-Jun-19 19:40 39.506600 -119.773250 0 4417ft 0kts
26-Jun-19 19:41 39.506599 -119.773250 0 4417ft 0kts

Navigation Log

Ident Type
Flight plan parsing failed, navigation log unavailable